sensor_id;sensor_type;location;lat;lon;timestamp;pressure;altitude;pressure_sealevel;temperature;humidity
7182;BME280;3632;42.724;23.298;2023-11-21T00:01:45;95238.94;;;5.21;95.33
7182;BME280;3632;42.724;23.298;2023-11-21T00:04:13;95268.53;;;4.89;97.19
7182;BME280;3632;42.724;23.298;2023-11-21T00:06:42;95252.38;;;4.78;99.09
7182;BME280;3632;42.724;23.298;2023-11-21T00:09:12;95134.47;;;4.36;96.98
7182;BME280;3632;42.724;23.298;2023-11-21T00:11:40;95252.13;;;4.52;98.24
7182;BME280;3632;42.724;23.298;2023-11-21T00:14:07;95254.22;;;4.60;99.91
7182;BME280;3632;42.724;23.298;2023-11-21T00:16:34;95253.22;;;4.92;98.13
7182;BME280;3632;42.724;23.298;2023-11-21T00:19:00;95258.88;;;5.12;96.91
7182;BME280;3632;42.724;23.298;2023-11-21T00:21:28;95251.31;;;5.26;96.22
7182;BME280;3632;42.724;23.298;2023-11-21T00:23:56;95258.25;;;4.92;97.42
7182;BME280;3632;42.724;23.298;2023-11-21T00:26:22;95256.16;;;4.71;99.14
7182;BME280;3632;42.724;23.298;2023-11-21T00:28:49;95117.09;;;3.70;100.00
7182;BME280;3632;42.724;23.298;2023-11-21T00:31:18;95250.16;;;4.42;100.00
7182;BME280;3632;42.724;23.298;2023-11-21T00:33:44;95248.97;;;4.63;100.00
7182;BME280;3632;42.724;23.298;2023-11-21T00:36:11;95244.59;;;4.96;99.31
7182;BME280;3632;42.724;23.298;2023-11-21T00:38:38;95246.78;;;5.17;97.50
7182;BME280;3632;42.724;23.298;2023-11-21T00:41:06;95244.81;;;5.22;96.45
7182;BME280;3632;42.724;23.298;2023-11-21T00:43:33;95248.22;;;5.35;95.80
7182;BME280;3632;42.724;23.298;2023-11-21T00:46:04;95250.41;;;5.41;94.97
7182;BME280;3632;42.724;23.298;2023-11-21T00:48:32;95172.28;;;4.80;94.51
7182;BME280;3632;42.724;23.298;2023-11-21T00:50:59;95260.97;;;5.47;93.62
7182;BME280;3632;42.724;23.298;2023-11-21T00:53:26;95242.28;;;5.36;93.56
7182;BME280;3632;42.724;23.298;2023-11-21T00:55:53;95239.91;;;5.19;95.46
7182;BME280;3632;42.724;23.298;2023-11-21T00:58:23;95236.53;;;4.90;96.73
7182;BME280;3632;42.724;23.298;2023-11-21T01:00:50;95235.38;;;5.10;96.49
7182;BME280;3632;42.724;23.298;2023-11-21T01:03:17;95233.06;;;5.21;95.80
7182;BME280;3632;42.724;23.298;2023-11-21T01:05:44;95232.56;;;4.86;97.13
7182;BME280;3632;42.724;23.298;2023-11-21T01:08:11;95230.94;;;4.55;99.42
7182;BME280;3632;42.724;23.298;2023-11-21T01:10:37;95059.25;;;3.21;100.00
7182;BME280;3632;42.724;23.298;2023-11-21T01:13:05;95233.03;;;4.01;100.00
7182;BME280;3632;42.724;23.298;2023-11-21T01:15:34;95242.25;;;4.02;100.00
7182;BME280;3632;42.724;23.298;2023-11-21T01:18:00;95232.56;;;4.10;100.00
7182;BME280;3632;42.724;23.298;2023-11-21T01:20:29;95221.06;;;4.21;100.00
7182;BME280;3632;42.724;23.298;2023-11-21T01:22:55;95240.19;;;4.54;99.92
7182;BME280;3632;42.724;23.298;2023-11-21T01:25:22;95192.88;;;3.98;100.00
7182;BME280;3632;42.724;23.298;2023-11-21T01:27:49;95237.91;;;4.20;100.00
7182;BME280;3632;42.724;23.298;2023-11-21T01:30:15;95242.06;;;4.05;100.00
7182;BME280;3632;42.724;23.298;2023-11-21T01:32:43;95236.53;;;3.99;100.00
7182;BME280;3632;42.724;23.298;2023-11-21T01:35:10;95237.75;;;3.76;100.00
7182;BME280;3632;42.724;23.298;2023-11-21T01:37:37;95234.91;;;3.98;100.00
7182;BME280;3632;42.724;23.298;2023-11-21T01:40:04;95232.47;;;4.28;100.00
7182;BME280;3632;42.724;23.298;2023-11-21T01:42:35;95198.03;;;4.27;99.89
7182;BME280;3632;42.724;23.298;2023-11-21T01:45:02;95232.94;;;4.64;98.66
7182;BME280;3632;42.724;23.298;2023-11-21T01:47:30;95231.13;;;4.21;100.00
7182;BME280;3632;42.724;23.298;2023-11-21T01:49:59;95222.78;;;3.73;100.00
7182;BME280;3632;42.724;23.298;2023-11-21T01:52:26;95225.50;;;3.37;100.00
7182;BME280;3632;42.724;23.298;2023-11-21T01:54:53;95230.97;;;3.12;100.00
7182;BME280;3632;42.724;23.298;2023-11-21T01:57:20;95059.91;;;2.11;100.00
7182;BME280;3632;42.724;23.298;2023-11-21T01:59:48;95233.50;;;3.28;100.00
7182;BME280;3632;42.724;23.298;2023-11-21T02:02:15;95240.56;;;3.21;100.00
7182;BME280;3632;42.724;23.298;2023-11-21T02:04:42;95233.13;;;3.36;100.00
7182;BME280;3632;42.724;23.298;2023-11-21T02:07:10;95230.97;;;3.61;100.00
7182;BME280;3632;42.724;23.298;2023-11-21T02:09:37;95230.06;;;3.62;100.00
7182;BME280;3632;42.724;23.298;2023-11-21T02:12:08;95228.72;;;3.56;100.00
7182;BME280;3632;42.724;23.298;2023-11-21T02:14:36;95265.06;;;3.68;100.00
7182;BME280;3632;42.724;23.298;2023-11-21T02:17:02;95233.44;;;3.94;100.00
7182;BME280;3632;42.724;23.298;2023-11-21T02:19:29;95214.72;;;4.13;100.00
7182;BME280;3632;42.724;23.298;2023-11-21T02:21:57;95221.88;;;4.37;99.61
7182;BME280;3632;42.724;23.298;2023-11-21T02:24:29;95221.09;;;4.50;98.42
7182;BME280;3632;42.724;23.298;2023-11-21T02:26:57;95224.41;;;4.51;98.26
7182;BME280;3632;42.724;23.298;2023-11-21T02:29:24;95216.16;;;4.63;95.94
7182;BME280;3632;42.724;23.298;2023-11-21T02:31:53;95193.69;;;4.29;95.83
7182;BME280;3632;42.724;23.298;2023-11-21T02:34:21;95226.94;;;4.67;95.02
7182;BME280;3632;42.724;23.298;2023-11-21T02:36:48;95222.66;;;4.67;95.68
7182;BME280;3632;42.724;23.298;2023-11-21T02:39:16;95209.16;;;4.68;95.47
7182;BME280;3632;42.724;23.298;2023-11-21T02:41:44;95100.09;;;4.03;95.13
7182;BME280;3632;42.724;23.298;2023-11-21T02:44:11;95177.13;;;4.54;94.33
7182;BME280;3632;42.724;23.298;2023-11-21T02:46:38;95218.66;;;4.79;95.03
7182;BME280;3632;42.724;23.298;2023-11-21T02:49:05;95221.63;;;4.85;94.98
7182;BME280;3632;42.724;23.298;2023-11-21T02:51:32;95208.84;;;4.88;94.40
7182;BME280;3632;42.724;23.298;2023-11-21T02:53:59;95178.31;;;4.63;95.03
7182;BME280;3632;42.724;23.298;2023-11-21T02:56:28;95218.53;;;4.96;94.37
7182;BME280;3632;42.724;23.298;2023-11-21T02:58:56;95225.97;;;4.53;95.28
7182;BME280;3632;42.724;23.298;2023-11-21T03:01:23;95193.19;;;3.92;97.20
7182;BME280;3632;42.724;23.298;2023-11-21T03:03:50;95206.44;;;3.96;98.03
7182;BME280;3632;42.724;23.298;2023-11-21T03:06:17;95216.69;;;4.08;98.53
7182;BME280;3632;42.724;23.298;2023-11-21T03:08:44;95221.97;;;4.20;98.06
7182;BME280;3632;42.724;23.298;2023-11-21T03:11:11;95214.50;;;4.02;98.50
7182;BME280;3632;42.724;23.298;2023-11-21T03:13:38;95229.13;;;4.27;98.00
7182;BME280;3632;42.724;23.298;2023-11-21T03:16:08;95213.34;;;4.08;98.18
7182;BME280;3632;42.724;23.298;2023-11-21T03:18:35;95219.22;;;3.93;99.86
7182;BME280;3632;42.724;23.298;2023-11-21T03:21:03;95223.59;;;3.74;100.00
7182;BME280;3632;42.724;23.298;2023-11-21T03:23:29;95225.22;;;3.59;100.00
7182;BME280;3632;42.724;23.298;2023-11-21T03:25:56;95229.66;;;3.54;100.00
7182;BME280;3632;42.724;23.298;2023-11-21T03:28:23;95225.78;;;3.31;100.00
7182;BME280;3632;42.724;23.298;2023-11-21T03:30:50;95234.41;;;3.27;100.00
7182;BME280;3632;42.724;23.298;2023-11-21T03:33:18;95234.06;;;3.17;100.00
7182;BME280;3632;42.724;23.298;2023-11-21T03:35:45;95029.38;;;2.01;100.00
7182;BME280;3632;42.724;23.298;2023-11-21T03:38:12;95220.91;;;3.28;100.00
7182;BME280;3632;42.724;23.298;2023-11-21T03:40:38;95151.19;;;2.80;100.00
7182;BME280;3632;42.724;23.298;2023-11-21T03:43:06;95237.00;;;3.26;100.00
7182;BME280;3632;42.724;23.298;2023-11-21T03:45:33;95221.16;;;3.23;100.00
7182;BME280;3632;42.724;23.298;2023-11-21T03:48:00;95184.31;;;3.05;100.00
7182;BME280;3632;42.724;23.298;2023-11-21T03:50:28;95134.34;;;2.48;100.00
7182;BME280;3632;42.724;23.298;2023-11-21T03:52:55;95206.25;;;2.86;100.00
7182;BME280;3632;42.724;23.298;2023-11-21T03:55:22;95186.81;;;2.55;100.00
7182;BME280;3632;42.724;23.298;2023-11-21T03:57:50;95214.69;;;2.68;100.00
7182;BME280;3632;42.724;23.298;2023-11-21T04:00:17;95216.75;;;2.94;100.00
7182;BME280;3632;42.724;23.298;2023-11-21T04:02:45;95210.25;;;2.90;100.00
7182;BME280;3632;42.724;23.298;2023-11-21T04:05:13;95253.84;;;2.73;100.00
7182;BME280;3632;42.724;23.298;2023-11-21T04:07:41;95178.59;;;2.52;100.00
7182;BME280;3632;42.724;23.298;2023-11-21T04:10:08;95206.06;;;3.06;100.00
7182;BME280;3632;42.724;23.298;2023-11-21T04:12:38;95183.56;;;3.03;100.00
7182;BME280;3632;42.724;23.298;2023-11-21T04:15:06;95002.84;;;1.08;100.00
7182;BME280;3632;42.724;23.298;2023-11-21T04:17:34;95204.16;;;3.11;100.00
7182;BME280;3632;42.724;23.298;2023-11-21T04:20:02;95184.78;;;2.96;100.00
7182;BME280;3632;42.724;23.298;2023-11-21T04:22:33;95213.69;;;3.22;100.00
7182;BME280;3632;42.724;23.298;2023-11-21T04:25:02;94999.81;;;2.06;100.00
7182;BME280;3632;42.724;23.298;2023-11-21T04:27:29;95173.81;;;3.46;100.00
7182;BME280;3632;42.724;23.298;2023-11-21T04:29:55;95206.16;;;3.53;100.00
7182;BME280;3632;42.724;23.298;2023-11-21T04:32:22;95039.06;;;2.59;100.00
7182;BME280;3632;42.724;23.298;2023-11-21T04:34:49;95198.25;;;3.77;100.00
7182;BME280;3632;42.724;23.298;2023-11-21T04:37:15;95200.06;;;3.42;100.00
7182;BME280;3632;42.724;23.298;2023-11-21T04:39:47;95202.47;;;3.28;100.00
7182;BME280;3632;42.724;23.298;2023-11-21T04:42:20;94988.34;;;2.01;100.00
7182;BME280;3632;42.724;23.298;2023-11-21T04:44:52;95157.53;;;2.54;100.00
7182;BME280;3632;42.724;23.298;2023-11-21T04:47:19;95165.28;;;2.67;100.00
7182;BME280;3632;42.724;23.298;2023-11-21T04:49:46;95204.31;;;2.91;100.00
7182;BME280;3632;42.724;23.298;2023-11-21T04:52:14;95214.81;;;3.16;100.00
7182;BME280;3632;42.724;23.298;2023-11-21T04:54:41;95214.53;;;3.38;100.00
7182;BME280;3632;42.724;23.298;2023-11-21T04:57:08;95218.44;;;3.11;100.00
7182;BME280;3632;42.724;23.298;2023-11-21T04:59:43;95159.50;;;2.65;100.00
7182;BME280;3632;42.724;23.298;2023-11-21T05:02:10;95207.94;;;3.36;100.00
7182;BME280;3632;42.724;23.298;2023-11-21T05:04:37;95208.13;;;3.48;100.00
7182;BME280;3632;42.724;23.298;2023-11-21T05:07:04;95209.19;;;3.76;100.00
7182;BME280;3632;42.724;23.298;2023-11-21T05:09:31;95207.31;;;3.48;100.00
7182;BME280;3632;42.724;23.298;2023-11-21T05:11:58;94894.16;;;1.42;100.00
7182;BME280;3632;42.724;23.298;2023-11-21T05:14:25;95197.28;;;3.31;100.00
7182;BME280;3632;42.724;23.298;2023-11-21T05:16:54;95032.75;;;2.17;100.00
7182;BME280;3632;42.724;23.298;2023-11-21T05:19:21;95207.91;;;3.20;100.00
7182;BME280;3632;42.724;23.298;2023-11-21T05:21:48;95098.00;;;2.38;100.00
7182;BME280;3632;42.724;23.298;2023-11-21T05:24:14;95086.47;;;2.16;100.00
7182;BME280;3632;42.724;23.298;2023-11-21T05:26:41;95199.88;;;2.96;100.00
7182;BME280;3632;42.724;23.298;2023-11-21T05:29:08;95215.47;;;3.03;100.00
7182;BME280;3632;42.724;23.298;2023-11-21T05:31:36;95222.19;;;3.19;100.00
7182;BME280;3632;42.724;23.298;2023-11-21T05:34:04;95226.47;;;3.35;100.00
7182;BME280;3632;42.724;23.298;2023-11-21T05:36:31;95218.19;;;3.48;100.00
7182;BME280;3632;42.724;23.298;2023-11-21T05:38:59;95214.81;;;3.81;100.00
7182;BME280;3632;42.724;23.298;2023-11-21T05:41:25;95223.84;;;4.00;100.00
7182;BME280;3632;42.724;23.298;2023-11-21T05:43:52;95217.25;;;4.13;100.00
7182;BME280;3632;42.724;23.298;2023-11-21T05:46:19;95224.38;;;4.37;100.00
7182;BME280;3632;42.724;23.298;2023-11-21T05:48:47;95218.13;;;4.12;100.00
7182;BME280;3632;42.724;23.298;2023-11-21T05:51:15;95222.47;;;3.79;100.00
7182;BME280;3632;42.724;23.298;2023-11-21T05:53:43;95210.09;;;3.75;100.00
7182;BME280;3632;42.724;23.298;2023-11-21T05:56:09;95147.28;;;3.07;100.00
7182;BME280;3632;42.724;23.298;2023-11-21T05:58:36;95214.56;;;3.54;100.00
7182;BME280;3632;42.724;23.298;2023-11-21T06:01:05;95218.31;;;3.78;100.00
7182;BME280;3632;42.724;23.298;2023-11-21T06:03:33;95156.88;;;3.16;100.00
7182;BME280;3632;42.724;23.298;2023-11-21T06:05:59;95193.44;;;3.72;100.00
7182;BME280;3632;42.724;23.298;2023-11-21T06:08:27;95225.25;;;3.90;100.00
7182;BME280;3632;42.724;23.298;2023-11-21T06:10:54;95197.91;;;3.83;100.00
7182;BME280;3632;42.724;23.298;2023-11-21T06:13:21;95133.53;;;3.46;100.00
7182;BME280;3632;42.724;23.298;2023-11-21T06:15:49;95223.66;;;4.03;100.00
7182;BME280;3632;42.724;23.298;2023-11-21T06:18:16;95228.06;;;4.31;100.00
7182;BME280;3632;42.724;23.298;2023-11-21T06:20:44;95232.50;;;4.42;100.00
7182;BME280;3632;42.724;23.298;2023-11-21T06:23:11;95222.66;;;4.53;99.62
7182;BME280;3632;42.724;23.298;2023-11-21T06:25:39;95231.88;;;4.68;98.62
7182;BME280;3632;42.724;23.298;2023-11-21T06:28:06;95240.06;;;4.87;97.21
7182;BME280;3632;42.724;23.298;2023-11-21T06:30:32;95177.94;;;4.55;95.61
7182;BME280;3632;42.724;23.298;2023-11-21T06:32:59;95233.13;;;5.05;95.50
7182;BME280;3632;42.724;23.298;2023-11-21T06:35:26;95234.03;;;5.18;93.91
7182;BME280;3632;42.724;23.298;2023-11-21T06:37:55;95238.34;;;4.88;93.90
7182;BME280;3632;42.724;23.298;2023-11-21T06:40:22;95254.94;;;4.62;96.91
7182;BME280;3632;42.724;23.298;2023-11-21T06:42:51;95252.88;;;4.69;98.14
7182;BME280;3632;42.724;23.298;2023-11-21T06:45:18;95250.56;;;4.80;98.04
7182;BME280;3632;42.724;23.298;2023-11-21T06:47:45;95250.16;;;5.01;97.33
7182;BME280;3632;42.724;23.298;2023-11-21T06:50:12;95252.75;;;4.86;96.59
7182;BME280;3632;42.724;23.298;2023-11-21T06:52:38;95243.72;;;4.52;98.03
7182;BME280;3632;42.724;23.298;2023-11-21T06:55:06;95244.88;;;4.76;97.33
7182;BME280;3632;42.724;23.298;2023-11-21T06:57:35;95209.00;;;4.85;95.96
7182;BME280;3632;42.724;23.298;2023-11-21T07:00:05;95261.88;;;5.32;93.48
7182;BME280;3632;42.724;23.298;2023-11-21T07:02:34;95249.34;;;5.59;90.98
7182;BME280;3632;42.724;23.298;2023-11-21T07:05:00;95256.75;;;5.76;90.21
7182;BME280;3632;42.724;23.298;2023-11-21T07:07:27;95167.91;;;4.97;89.23
7182;BME280;3632;42.724;23.298;2023-11-21T07:09:54;95246.31;;;4.66;92.09
7182;BME280;3632;42.724;23.298;2023-11-21T07:12:21;95271.75;;;4.16;96.66
7182;BME280;3632;42.724;23.298;2023-11-21T07:14:49;95244.00;;;4.32;100.00
7182;BME280;3632;42.724;23.298;2023-11-21T07:17:17;95191.63;;;4.05;100.00
7182;BME280;3632;42.724;23.298;2023-11-21T07:19:43;95246.34;;;4.35;100.00
7182;BME280;3632;42.724;23.298;2023-11-21T07:22:10;95176.91;;;3.98;100.00
7182;BME280;3632;42.724;23.298;2023-11-21T07:24:39;95167.56;;;4.16;100.00
7182;BME280;3632;42.724;23.298;2023-11-21T07:27:07;95239.34;;;4.99;100.00
7182;BME280;3632;42.724;23.298;2023-11-21T07:29:34;95248.34;;;4.59;98.02
7182;BME280;3632;42.724;23.298;2023-11-21T07:32:01;95254.25;;;4.29;98.39
7182;BME280;3632;42.724;23.298;2023-11-21T07:34:29;95257.00;;;4.40;100.00
7182;BME280;3632;42.724;23.298;2023-11-21T07:36:56;95241.59;;;4.60;100.00
7182;BME280;3632;42.724;23.298;2023-11-21T07:39:22;95239.28;;;5.15;100.00
7182;BME280;3632;42.724;23.298;2023-11-21T07:41:49;95226.28;;;5.07;99.83
7182;BME280;3632;42.724;23.298;2023-11-21T07:44:16;95238.75;;;4.80;97.26
7182;BME280;3632;42.724;23.298;2023-11-21T07:46:45;95236.22;;;4.66;99.68
7182;BME280;3632;42.724;23.298;2023-11-21T07:49:12;95228.88;;;4.91;100.00
7182;BME280;3632;42.724;23.298;2023-11-21T07:51:43;95237.03;;;5.39;100.00
7182;BME280;3632;42.724;23.298;2023-11-21T07:54:09;95228.69;;;6.08;100.00
7182;BME280;3632;42.724;23.298;2023-11-21T07:56:36;95225.22;;;5.96;97.31
7182;BME280;3632;42.724;23.298;2023-11-21T07:59:03;95064.81;;;4.47;94.81
7182;BME280;3632;42.724;23.298;2023-11-21T08:01:30;95261.06;;;5.18;97.54
7182;BME280;3632;42.724;23.298;2023-11-21T08:03:57;95225.13;;;5.41;100.00
7182;BME280;3632;42.724;23.298;2023-11-21T08:06:27;95217.38;;;5.72;100.00
7182;BME280;3632;42.724;23.298;2023-11-21T08:08:55;95208.50;;;5.93;99.59
7182;BME280;3632;42.724;23.298;2023-11-21T08:11:22;95219.25;;;5.69;94.35
7182;BME280;3632;42.724;23.298;2023-11-21T08:13:48;95217.44;;;5.57;95.42
7182;BME280;3632;42.724;23.298;2023-11-21T08:16:15;95216.09;;;5.79;99.81
7182;BME280;3632;42.724;23.298;2023-11-21T08:18:42;95226.16;;;6.08;100.00
7182;BME280;3632;42.724;23.298;2023-11-21T08:21:11;95213.06;;;6.81;97.13
7182;BME280;3632;42.724;23.298;2023-11-21T08:23:38;95209.13;;;7.28;92.07
7182;BME280;3632;42.724;23.298;2023-11-21T08:26:06;95215.69;;;7.68;89.16
7182;BME280;3632;42.724;23.298;2023-11-21T08:28:34;95215.63;;;7.94;86.10
7182;BME280;3632;42.724;23.298;2023-11-21T08:31:01;95206.31;;;8.31;83.91
7182;BME280;3632;42.724;23.298;2023-11-21T08:33:28;95202.75;;;8.57;82.24
7182;BME280;3632;42.724;23.298;2023-11-21T08:35:54;95208.91;;;8.65;80.89
7182;BME280;3632;42.724;23.298;2023-11-21T08:38:21;95214.38;;;8.48;81.55
7182;BME280;3632;42.724;23.298;2023-11-21T08:40:48;95201.53;;;8.74;81.89
7182;BME280;3632;42.724;23.298;2023-11-21T08:43:16;94878.28;;;6.51;79.40
7182;BME280;3632;42.724;23.298;2023-11-21T08:45:50;95125.69;;;8.21;81.68
7182;BME280;3632;42.724;23.298;2023-11-21T08:48:36;95260.91;;;9.07;81.11
7182;BME280;3632;42.724;23.298;2023-11-21T08:51:03;95192.16;;;9.20;78.81
7182;BME280;3632;42.724;23.298;2023-11-21T08:53:30;95184.31;;;9.56;77.21
7182;BME280;3632;42.724;23.298;2023-11-21T08:55:57;95183.38;;;9.91;75.48
7182;BME280;3632;42.724;23.298;2023-11-21T08:58:25;95176.41;;;10.04;74.55
7182;BME280;3632;42.724;23.298;2023-11-21T09:00:51;95171.78;;;9.87;74.32
7182;BME280;3632;42.724;23.298;2023-11-21T09:03:18;95174.47;;;9.74;75.30
7182;BME280;3632;42.724;23.298;2023-11-21T09:05:45;95131.13;;;9.53;76.10
7182;BME280;3632;42.724;23.298;2023-11-21T09:08:12;95154.91;;;9.97;75.72
7182;BME280;3632;42.724;23.298;2023-11-21T09:10:38;95143.88;;;10.07;74.07
7182;BME280;3632;42.724;23.298;2023-11-21T09:13:05;95151.47;;;9.53;76.49
7182;BME280;3632;42.724;23.298;2023-11-21T09:15:35;95134.81;;;9.72;75.84
7182;BME280;3632;42.724;23.298;2023-11-21T09:18:02;95086.69;;;9.69;75.01
7182;BME280;3632;42.724;23.298;2023-11-21T09:20:30;95109.44;;;11.28;89.71
7182;BME280;3632;42.724;23.298;2023-11-21T09:22:57;95141.63;;;11.89;78.63
7182;BME280;3632;42.724;23.298;2023-11-21T09:25:23;95099.69;;;11.12;72.44
7182;BME280;3632;42.724;23.298;2023-11-21T09:27:50;95094.94;;;10.98;71.70
7182;BME280;3632;42.724;23.298;2023-11-21T09:30:17;95093.19;;;10.78;72.14
7182;BME280;3632;42.724;23.298;2023-11-21T09:32:45;94887.69;;;9.33;73.20
7182;BME280;3632;42.724;23.298;2023-11-21T09:35:12;95076.53;;;11.84;86.28
7182;BME280;3632;42.724;23.298;2023-11-21T09:37:40;95075.53;;;12.34;71.92
7182;BME280;3632;42.724;23.298;2023-11-21T09:40:10;95070.59;;;12.89;69.30
7182;BME280;3632;42.724;23.298;2023-11-21T09:42:41;95073.91;;;12.33;63.33
7182;BME280;3632;42.724;23.298;2023-11-21T09:45:15;95060.69;;;10.70;68.14
7182;BME280;3632;42.724;23.298;2023-11-21T09:47:47;95043.97;;;10.77;69.62
7182;BME280;3632;42.724;23.298;2023-11-21T09:50:17;95037.66;;;11.61;68.41
7182;BME280;3632;42.724;23.298;2023-11-21T09:52:49;95033.31;;;11.33;67.41
7182;BME280;3632;42.724;23.298;2023-11-21T09:55:19;95021.97;;;11.75;65.53
7182;BME280;3632;42.724;23.298;2023-11-21T09:57:48;95019.19;;;11.19;66.86
7182;BME280;3632;42.724;23.298;2023-11-21T10:00:16;95020.06;;;11.68;67.27
7182;BME280;3632;42.724;23.298;2023-11-21T10:02:46;95019.19;;;11.88;66.81
7182;BME280;3632;42.724;23.298;2023-11-21T10:05:15;95018.97;;;12.57;63.93
7182;BME280;3632;42.724;23.298;2023-11-21T10:07:43;94957.06;;;12.16;63.80
7182;BME280;3632;42.724;23.298;2023-11-21T10:10:10;95015.81;;;12.82;61.07
7182;BME280;3632;42.724;23.298;2023-11-21T10:12:38;95015.22;;;12.51;62.48
7182;BME280;3632;42.724;23.298;2023-11-21T10:15:08;95012.50;;;12.62;62.42
7182;BME280;3632;42.724;23.298;2023-11-21T10:17:38;94999.28;;;13.41;59.54
7182;BME280;3632;42.724;23.298;2023-11-21T10:20:10;94992.94;;;13.62;59.51
7182;BME280;3632;42.724;23.298;2023-11-21T10:22:38;94985.69;;;13.76;58.55
7182;BME280;3632;42.724;23.298;2023-11-21T10:25:07;94993.31;;;13.85;58.27
7182;BME280;3632;42.724;23.298;2023-11-21T10:27:34;94984.09;;;13.57;59.45
7182;BME280;3632;42.724;23.298;2023-11-21T10:30:01;94980.56;;;13.40;59.56
7182;BME280;3632;42.724;23.298;2023-11-21T10:32:29;94943.25;;;12.83;59.33
7182;BME280;3632;42.724;23.298;2023-11-21T10:34:57;94981.03;;;12.62;61.42
7182;BME280;3632;42.724;23.298;2023-11-21T10:37:27;94981.44;;;12.48;61.99
7182;BME280;3632;42.724;23.298;2023-11-21T10:39:57;94966.28;;;12.36;61.75
7182;BME280;3632;42.724;23.298;2023-11-21T10:42:24;94964.78;;;12.44;61.78
7182;BME280;3632;42.724;23.298;2023-11-21T10:44:52;94974.75;;;12.47;64.68
7182;BME280;3632;42.724;23.298;2023-11-21T10:47:19;94633.47;;;10.21;63.38
7182;BME280;3632;42.724;23.298;2023-11-21T10:49:48;94965.94;;;12.68;67.72
7182;BME280;3632;42.724;23.298;2023-11-21T10:52:15;94958.22;;;12.41;66.69
7182;BME280;3632;42.724;23.298;2023-11-21T10:54:44;94864.94;;;11.23;65.37
7182;BME280;3632;42.724;23.298;2023-11-21T10:57:13;94949.94;;;11.53;64.86
7182;BME280;3632;42.724;23.298;2023-11-21T10:59:46;94948.31;;;11.42;66.49
7182;BME280;3632;42.724;23.298;2023-11-21T11:02:21;94869.97;;;10.85;66.66
7182;BME280;3632;42.724;23.298;2023-11-21T11:04:48;94938.34;;;11.29;68.79
7182;BME280;3632;42.724;23.298;2023-11-21T11:07:16;94907.59;;;11.12;72.14
7182;BME280;3632;42.724;23.298;2023-11-21T11:09:44;94945.50;;;11.55;68.78
7182;BME280;3632;42.724;23.298;2023-11-21T11:12:12;94933.69;;;11.54;68.69
7182;BME280;3632;42.724;23.298;2023-11-21T11:14:42;94929.75;;;11.30;68.35
7182;BME280;3632;42.724;23.298;2023-11-21T11:17:10;94926.69;;;11.56;70.36
7182;BME280;3632;42.724;23.298;2023-11-21T11:19:37;94924.69;;;11.40;67.49
7182;BME280;3632;42.724;23.298;2023-11-21T11:22:12;94917.44;;;11.45;69.67
7182;BME280;3632;42.724;23.298;2023-11-21T11:24:58;94913.81;;;11.48;68.94
7182;BME280;3632;42.724;23.298;2023-11-21T11:27:35;94909.09;;;11.43;68.43
7182;BME280;3632;42.724;23.298;2023-11-21T11:30:12;94908.28;;;11.42;68.43
7182;BME280;3632;42.724;23.298;2023-11-21T11:32:51;94910.19;;;11.40;68.68
7182;BME280;3632;42.724;23.298;2023-11-21T11:35:26;94807.19;;;10.84;72.51
7182;BME280;3632;42.724;23.298;2023-11-21T11:37:57;94863.59;;;11.19;73.04
7182;BME280;3632;42.724;23.298;2023-11-21T11:40:38;94871.50;;;11.07;70.50
7182;BME280;3632;42.724;23.298;2023-11-21T11:43:06;94882.22;;;11.29;72.66
7182;BME280;3632;42.724;23.298;2023-11-21T11:45:34;94898.31;;;11.20;72.11
7182;BME280;3632;42.724;23.298;2023-11-21T11:48:03;94878.50;;;11.24;71.44
7182;BME280;3632;42.724;23.298;2023-11-21T11:50:32;94917.28;;;11.46;71.10
7182;BME280;3632;42.724;23.298;2023-11-21T11:53:12;94881.25;;;10.42;73.33
7182;BME280;3632;42.724;23.298;2023-11-21T11:55:40;94917.34;;;9.96;78.29
7182;BME280;3632;42.724;23.298;2023-11-21T11:58:07;94910.28;;;9.68;80.62
7182;BME280;3632;42.724;23.298;2023-11-21T12:00:35;94914.19;;;9.51;83.64
7182;BME280;3632;42.724;23.298;2023-11-21T12:03:06;94914.78;;;9.23;88.73
7182;BME280;3632;42.724;23.298;2023-11-21T12:05:34;94888.38;;;8.92;91.62
7182;BME280;3632;42.724;23.298;2023-11-21T12:08:05;94928.34;;;9.01;93.64
7182;BME280;3632;42.724;23.298;2023-11-21T12:10:34;94905.31;;;9.14;95.00
7182;BME280;3632;42.724;23.298;2023-11-21T12:13:03;94878.84;;;8.74;95.77
7182;BME280;3632;42.724;23.298;2023-11-21T12:15:32;94925.06;;;8.56;100.00
7182;BME280;3632;42.724;23.298;2023-11-21T12:18:00;94914.78;;;8.47;100.00
7182;BME280;3632;42.724;23.298;2023-11-21T12:20:28;94910.53;;;8.47;100.00
7182;BME280;3632;42.724;23.298;2023-11-21T12:22:55;94911.06;;;8.73;100.00
7182;BME280;3632;42.724;23.298;2023-11-21T12:25:25;94902.72;;;8.93;100.00
7182;BME280;3632;42.724;23.298;2023-11-21T12:27:55;94906.00;;;8.51;100.00
7182;BME280;3632;42.724;23.298;2023-11-21T12:30:26;94899.66;;;8.23;100.00
7182;BME280;3632;42.724;23.298;2023-11-21T12:32:54;94914.16;;;8.21;100.00
7182;BME280;3632;42.724;23.298;2023-11-21T12:35:24;94925.94;;;8.22;100.00
7182;BME280;3632;42.724;23.298;2023-11-21T12:37:52;94881.88;;;8.45;100.00
7182;BME280;3632;42.724;23.298;2023-11-21T12:40:19;94910.72;;;8.22;100.00
7182;BME280;3632;42.724;23.298;2023-11-21T12:42:51;94901.69;;;7.96;100.00
7182;BME280;3632;42.724;23.298;2023-11-21T12:45:19;94893.97;;;7.97;100.00
7182;BME280;3632;42.724;23.298;2023-11-21T12:47:49;94887.28;;;8.07;100.00
7182;BME280;3632;42.724;23.298;2023-11-21T12:50:18;94894.59;;;8.34;100.00
7182;BME280;3632;42.724;23.298;2023-11-21T12:52:49;94897.13;;;8.45;100.00
7182;BME280;3632;42.724;23.298;2023-11-21T12:55:17;94887.97;;;8.09;100.00
7182;BME280;3632;42.724;23.298;2023-11-21T12:57:48;94822.38;;;7.48;100.00
7182;BME280;3632;42.724;23.298;2023-11-21T13:00:16;94843.09;;;7.76;100.00
7182;BME280;3632;42.724;23.298;2023-11-21T13:02:54;94869.41;;;8.20;100.00
7182;BME280;3632;42.724;23.298;2023-11-21T13:05:27;94874.16;;;8.47;100.00
7182;BME280;3632;42.724;23.298;2023-11-21T13:07:55;94889.00;;;8.85;100.00
7182;BME280;3632;42.724;23.298;2023-11-21T13:10:24;94804.22;;;8.20;100.00
7182;BME280;3632;42.724;23.298;2023-11-21T13:12:55;94907.63;;;8.41;100.00
7182;BME280;3632;42.724;23.298;2023-11-21T13:15:23;94830.28;;;8.00;100.00
7182;BME280;3632;42.724;23.298;2023-11-21T13:17:51;94803.75;;;7.82;100.00
7182;BME280;3632;42.724;23.298;2023-11-21T13:20:20;94855.13;;;8.30;100.00